createdAt,value
2023-10-08T00:01:22.914Z,65.55
2023-10-08T00:03:50.755Z,65.29
2023-10-08T00:06:21.492Z,65.38
2023-10-08T00:08:49.564Z,65.08
2023-10-08T00:11:19.993Z,65.16
2023-10-08T00:13:49.425Z,65.34
2023-10-08T00:16:17.931Z,65.28
2023-10-08T00:18:52.253Z,65.43
2023-10-08T00:21:29.031Z,65.47
2023-10-08T00:23:59.729Z,65.23
2023-10-08T00:26:29.209Z,65.42
2023-10-08T00:29:08.163Z,64.78
2023-10-08T00:31:39.504Z,65.06
2023-10-08T00:34:06.744Z,64.89
2023-10-08T00:36:35.230Z,65.42
2023-10-08T00:39:09.712Z,65.32
2023-10-08T00:41:39.190Z,65.20
2023-10-08T00:44:09.806Z,65.12
2023-10-08T00:46:43.671Z,65.52
2023-10-08T00:49:23.238Z,65.65
2023-10-08T00:52:09.682Z,65.45
2023-10-08T00:54:55.752Z,65.57
2023-10-08T00:57:27.479Z,66.08
2023-10-08T00:59:54.661Z,65.60
2023-10-08T01:02:29.065Z,65.88
2023-10-08T01:04:57.515Z,65.81
2023-10-08T01:07:26.261Z,66.03
2023-10-08T01:09:59.694Z,66.06
2023-10-08T01:12:37.003Z,66.22
2023-10-08T01:15:22.985Z,65.96
2023-10-08T01:17:59.169Z,66.20
2023-10-08T01:20:35.778Z,66.17
2023-10-08T01:23:17.694Z,65.58
2023-10-08T01:25:51.850Z,65.88
2023-10-08T01:28:32.218Z,65.80
2023-10-08T01:31:05.214Z,65.73
2023-10-08T01:33:33.328Z,65.65
2023-10-08T01:36:04.315Z,65.89
2023-10-08T01:38:36.276Z,65.79
2023-10-08T01:41:19.620Z,65.63
2023-10-08T01:43:47.364Z,65.96
2023-10-08T01:46:16.692Z,65.52
2023-10-08T01:48:45.933Z,66.08
2023-10-08T01:51:20.558Z,65.72
2023-10-08T01:53:49.046Z,65.79
2023-10-08T01:56:16.235Z,66.13
2023-10-08T01:58:43.244Z,66.11
2023-10-08T02:01:13.334Z,66.11
2023-10-08T02:03:42.995Z,66.12
2023-10-08T02:06:10.292Z,66.19
2023-10-08T02:08:37.773Z,66.06
2023-10-08T02:11:05.176Z,66.43
2023-10-08T02:13:32.209Z,66.71
2023-10-08T02:15:59.324Z,66.75
2023-10-08T02:18:26.847Z,66.99
2023-10-08T02:20:54.351Z,66.78
2023-10-08T02:23:21.612Z,67.53
2023-10-08T02:25:49.170Z,67.50
2023-10-08T02:28:16.930Z,67.19
2023-10-08T02:30:44.442Z,67.84
2023-10-08T02:33:18.484Z,67.54
2023-10-08T02:35:47.596Z,67.46
2023-10-08T02:38:18.501Z,67.60
2023-10-08T02:40:48.577Z,67.36
2023-10-08T02:43:17.635Z,67.76
2023-10-08T02:45:50.765Z,67.40
2023-10-08T02:48:19.276Z,67.44
2023-10-08T02:50:47.405Z,67.04
2023-10-08T02:53:21.364Z,67.82
2023-10-08T02:55:48.884Z,67.46
2023-10-08T02:58:16.351Z,67.55
2023-10-08T03:00:47.897Z,67.38
2023-10-08T03:03:19.834Z,66.96
2023-10-08T03:05:53.532Z,66.63
2023-10-08T03:08:24.761Z,66.86
2023-10-08T03:10:57.254Z,66.66
2023-10-08T03:13:27.239Z,67.63
2023-10-08T03:16:03.092Z,67.44
2023-10-08T03:18:37.585Z,68.11
2023-10-08T03:21:07.008Z,68.40
2023-10-08T03:23:35.516Z,68.24
2023-10-08T03:26:33.453Z,68.67
2023-10-08T03:29:08.677Z,69.41
2023-10-08T03:31:48.079Z,68.78
2023-10-08T03:34:20.213Z,68.19
2023-10-08T03:36:50.764Z,68.26
2023-10-08T03:39:19.877Z,69.13
2023-10-08T03:42:00.057Z,68.58
2023-10-08T03:44:30.643Z,68.34
2023-10-08T03:46:58.297Z,69.57
2023-10-08T03:49:25.300Z,68.38
2023-10-08T03:51:53.593Z,68.81
2023-10-08T03:54:31.313Z,68.07
2023-10-08T03:56:58.952Z,69.58
2023-10-08T03:59:41.364Z,68.57
2023-10-08T04:02:15.683Z,68.34
2023-10-08T04:04:50.216Z,68.05
2023-10-08T04:07:30.107Z,68.21
2023-10-08T04:10:11.292Z,68.09
2023-10-08T04:12:45.450Z,68.06
2023-10-08T04:15:17.480Z,67.80
2023-10-08T04:17:44.957Z,68.15
2023-10-08T04:20:39.059Z,67.81
2023-10-08T04:23:15.012Z,67.86
2023-10-08T04:25:44.896Z,67.75
2023-10-08T04:28:15.398Z,67.54
2023-10-08T04:30:42.777Z,67.52
2023-10-08T04:33:14.010Z,67.54
2023-10-08T04:35:51.975Z,67.65
2023-10-08T04:38:22.977Z,67.47
2023-10-08T04:40:52.479Z,67.38
2023-10-08T04:43:26.768Z,67.76
2023-10-08T04:46:09.744Z,67.76
2023-10-08T04:48:37.991Z,67.53
2023-10-08T04:51:05.120Z,67.84
2023-10-08T04:53:38.217Z,67.32
2023-10-08T04:56:18.028Z,67.90
2023-10-08T04:58:49.862Z,68.44
2023-10-08T05:01:20.310Z,68.60
2023-10-08T05:04:15.856Z,68.68
2023-10-08T05:06:45.705Z,68.25
2023-10-08T05:09:20.013Z,67.74
2023-10-08T05:11:51.960Z,68.21
2023-10-08T05:14:34.447Z,68.04
2023-10-08T05:17:23.340Z,67.92
2023-10-08T05:19:51.109Z,68.34
2023-10-08T05:22:19.961Z,68.80
2023-10-08T05:25:09.476Z,68.46
2023-10-08T05:27:39.608Z,69.02
2023-10-08T05:30:17.485Z,69.27
2023-10-08T05:33:08.124Z,69.09
2023-10-08T05:35:45.803Z,69.38
2023-10-08T05:38:31.541Z,68.99
2023-10-08T05:40:59.695Z,68.87
2023-10-08T05:43:38.843Z,68.46
2023-10-08T05:46:23.398Z,68.40
2023-10-08T05:49:09.443Z,68.19
2023-10-08T05:51:48.061Z,68.21
2023-10-08T05:54:33.195Z,68.50
2023-10-08T05:57:15.906Z,68.35
2023-10-08T05:59:57.764Z,67.86
2023-10-08T06:02:39.528Z,68.28
2023-10-08T06:05:15.286Z,67.99
2023-10-08T06:07:55.337Z,67.88
2023-10-08T06:10:32.258Z,68.48
2023-10-08T06:13:10.806Z,68.11
2023-10-08T06:15:57.675Z,68.00
2023-10-08T06:18:31.065Z,68.67
2023-10-08T06:21:01.183Z,68.97
2023-10-08T06:23:36.444Z,68.62
2023-10-08T06:26:15.414Z,68.42
2023-10-08T06:28:46.853Z,68.71
2023-10-08T06:31:17.432Z,69.26
2023-10-08T06:33:45.600Z,68.86
2023-10-08T06:36:12.771Z,68.48
2023-10-08T06:38:42.416Z,68.25
2023-10-08T06:41:13.914Z,68.53
2023-10-08T06:43:49.314Z,68.61
2023-10-08T06:46:22.386Z,68.76
2023-10-08T06:48:50.489Z,68.79
2023-10-08T06:51:20.302Z,68.99
2023-10-08T06:53:49.448Z,68.72
2023-10-08T06:56:19.453Z,68.65
2023-10-08T06:58:50.179Z,68.71
2023-10-08T07:01:25.492Z,68.55
2023-10-08T07:03:57.576Z,69.00
2023-10-08T07:06:27.327Z,68.91
2023-10-08T07:08:56.476Z,69.18
2023-10-08T07:11:24.284Z,69.37
2023-10-08T07:13:52.572Z,69.10
2023-10-08T07:16:22.088Z,69.22
2023-10-08T07:19:02.524Z,68.67
2023-10-08T07:21:30.133Z,68.96
2023-10-08T07:23:59.049Z,68.56
2023-10-08T07:26:41.657Z,69.03
2023-10-08T07:29:12.602Z,68.73
2023-10-08T07:31:43.814Z,68.55
2023-10-08T07:34:19.837Z,68.68
2023-10-08T07:36:52.509Z,69.05
2023-10-08T07:39:34.355Z,68.58
2023-10-08T07:42:06.701Z,69.17
2023-10-08T07:44:37.215Z,69.02
2023-10-08T07:47:06.192Z,69.39
2023-10-08T07:49:33.623Z,69.27
2023-10-08T07:52:00.750Z,69.66
2023-10-08T07:54:35.234Z,69.84
2023-10-08T07:57:20.188Z,69.50
2023-10-08T07:59:48.684Z,69.71
2023-10-08T08:02:19.183Z,70.10
2023-10-08T08:04:52.149Z,70.04
2023-10-08T08:07:20.824Z,69.93
2023-10-08T08:09:53.640Z,70.00
2023-10-08T08:12:23.236Z,69.95
2023-10-08T08:14:51.804Z,69.92
2023-10-08T08:17:23.721Z,69.79
2023-10-08T08:19:53.774Z,69.97
2023-10-08T08:22:24.284Z,69.91
2023-10-08T08:25:00.905Z,70.16
2023-10-08T08:27:33.082Z,70.33
2023-10-08T08:30:16.730Z,70.65
2023-10-08T08:32:46.080Z,70.62
2023-10-08T08:35:17.537Z,70.37
2023-10-08T08:37:47.716Z,69.85
2023-10-08T08:40:20.545Z,69.59
2023-10-08T08:42:50.057Z,69.87
2023-10-08T08:45:23.679Z,69.84
2023-10-08T08:47:51.256Z,69.91
2023-10-08T08:50:20.256Z,69.98
2023-10-08T08:52:47.932Z,69.49
2023-10-08T08:55:16.163Z,69.85
2023-10-08T08:57:53.808Z,70.03
2023-10-08T09:00:21.990Z,69.81
2023-10-08T09:02:51.226Z,69.84
2023-10-08T09:05:24.841Z,69.75
2023-10-08T09:07:56.157Z,69.68
2023-10-08T09:10:29.078Z,69.82
2023-10-08T09:13:01.127Z,70.06
2023-10-08T09:15:29.450Z,69.71
2023-10-08T09:17:57.806Z,69.79
2023-10-08T09:20:25.085Z,70.15
2023-10-08T09:23:13.658Z,70.14
2023-10-08T09:25:46.440Z,70.10
2023-10-08T09:28:16.430Z,70.32
2023-10-08T09:30:46.772Z,70.13
2023-10-08T09:33:15.325Z,69.99
2023-10-08T09:35:46.712Z,70.26
2023-10-08T09:38:13.941Z,70.26
2023-10-08T09:40:42.952Z,69.98
2023-10-08T09:43:13.360Z,70.06
2023-10-08T09:45:48.325Z,69.72
2023-10-08T09:48:20.025Z,69.75
2023-10-08T09:50:49.236Z,69.23
2023-10-08T09:53:20.803Z,69.51
2023-10-08T09:55:56.528Z,69.93
2023-10-08T09:58:25.654Z,70.02
2023-10-08T10:00:58.171Z,69.95
2023-10-08T10:03:27.941Z,69.95
2023-10-08T10:05:59.591Z,69.98
2023-10-08T10:08:29.446Z,69.65
2023-10-08T10:11:01.209Z,69.92
2023-10-08T10:13:42.769Z,69.98
2023-10-08T10:16:23.223Z,70.14
2023-10-08T10:18:51.132Z,69.70
2023-10-08T10:21:18.272Z,69.76
2023-10-08T10:23:47.569Z,70.23
2023-10-08T10:26:33.612Z,70.45
2023-10-08T10:29:15.857Z,70.73
2023-10-08T10:31:47.612Z,70.62
2023-10-08T10:34:20.543Z,70.56
2023-10-08T10:36:50.223Z,70.18
2023-10-08T10:39:34.122Z,70.51
2023-10-08T10:42:03.411Z,70.00
2023-10-08T10:44:32.410Z,70.04
2023-10-08T10:47:24.576Z,70.23
2023-10-08T10:49:54.601Z,70.34
2023-10-08T10:52:32.605Z,70.24
2023-10-08T10:55:15.960Z,70.43
2023-10-08T10:57:58.092Z,70.56
2023-10-08T11:00:33.103Z,69.95
2023-10-08T11:03:05.682Z,69.92
2023-10-08T11:05:39.084Z,70.26
2023-10-08T11:08:09.723Z,70.00
2023-10-08T11:10:43.814Z,71.12
2023-10-08T11:13:17.037Z,70.53
2023-10-08T11:15:51.153Z,70.54
2023-10-08T11:18:24.549Z,69.71
2023-10-08T11:21:02.285Z,69.64
2023-10-08T11:23:44.727Z,70.22
2023-10-08T11:26:13.208Z,69.18
2023-10-08T11:28:43.604Z,69.16
2023-10-08T11:31:20.677Z,69.47
2023-10-08T11:33:58.338Z,69.06
2023-10-08T11:36:44.012Z,69.54
2023-10-08T11:39:23.179Z,69.44
2023-10-08T11:41:58.803Z,70.05
2023-10-08T11:44:31.415Z,69.66
2023-10-08T11:47:05.724Z,69.59
2023-10-08T11:49:37.470Z,69.96
2023-10-08T11:52:04.981Z,70.09
2023-10-08T11:54:33.257Z,69.78
2023-10-08T11:57:04.035Z,69.70
2023-10-08T11:59:33.221Z,68.77
2023-10-08T12:02:00.360Z,69.22
2023-10-08T12:04:30.894Z,70.24
2023-10-08T12:06:58.294Z,69.92
2023-10-08T12:09:28.648Z,70.91
2023-10-08T12:11:57.524Z,72.18
2023-10-08T12:14:31.255Z,71.18
2023-10-08T12:17:01.328Z,69.25
2023-10-08T12:19:28.418Z,70.44
2023-10-08T12:21:55.401Z,70.12
2023-10-08T12:24:22.406Z,69.92
2023-10-08T12:26:50.580Z,70.83
2023-10-08T12:29:20.252Z,71.01
2023-10-08T12:31:48.776Z,71.21
2023-10-08T12:34:16.369Z,70.94
2023-10-08T12:36:43.615Z,69.95
2023-10-08T12:39:16.017Z,69.32
2023-10-08T12:41:45.173Z,70.48
2023-10-08T12:44:13.672Z,70.68
2023-10-08T12:46:44.377Z,68.85
2023-10-08T12:49:11.577Z,69.81
2023-10-08T12:51:42.514Z,70.31
2023-10-08T12:54:12.483Z,70.33
2023-10-08T12:56:45.960Z,69.92
2023-10-08T12:59:21.999Z,71.03
2023-10-08T13:01:55.249Z,70.89
2023-10-08T13:04:29.764Z,69.27
2023-10-08T13:07:02.616Z,70.60
2023-10-08T13:09:37.770Z,70.52
2023-10-08T13:12:05.905Z,70.25
2023-10-08T13:14:36.249Z,71.15
2023-10-08T13:17:04.176Z,70.63
2023-10-08T13:19:34.925Z,69.51
2023-10-08T13:22:02.175Z,69.42
2023-10-08T13:24:30.280Z,70.26
2023-10-08T13:26:59.530Z,70.72
2023-10-08T13:29:28.069Z,69.88
2023-10-08T13:31:55.435Z,68.61
2023-10-08T13:34:22.619Z,69.83
2023-10-08T13:36:50.562Z,69.04
2023-10-08T13:39:20.717Z,69.80
2023-10-08T13:41:53.044Z,70.04
2023-10-08T13:44:29.908Z,69.87
2023-10-08T13:46:59.521Z,67.99
2023-10-08T13:49:30.610Z,68.11
2023-10-08T13:51:58.318Z,69.09
2023-10-08T13:54:31.227Z,69.25
2023-10-08T13:57:00.108Z,69.91
2023-10-08T13:59:27.878Z,69.63
2023-10-08T14:01:56.241Z,69.89
2023-10-08T14:04:35.979Z,69.50
2023-10-08T14:07:05.197Z,69.81
2023-10-08T14:09:33.157Z,69.47
2023-10-08T14:12:01.520Z,68.97
2023-10-08T14:14:34.472Z,68.43
2023-10-08T14:17:09.437Z,68.68
2023-10-08T14:19:40.399Z,69.15
2023-10-08T14:22:09.955Z,68.94
2023-10-08T14:24:39.293Z,68.55
2023-10-08T14:27:16.074Z,68.99
2023-10-08T14:29:47.566Z,68.66
2023-10-08T14:32:16.325Z,67.91
2023-10-08T14:34:55.316Z,67.92
2023-10-08T14:37:42.566Z,66.81
2023-10-08T14:40:28.374Z,66.71
2023-10-08T14:43:01.714Z,67.07
2023-10-08T14:45:36.545Z,66.33
2023-10-08T14:48:09.072Z,66.56
2023-10-08T14:50:36.272Z,66.45
2023-10-08T14:53:06.480Z,66.53
2023-10-08T14:55:36.524Z,65.87
2023-10-08T14:58:08.764Z,65.88
2023-10-08T15:00:39.781Z,66.62
2023-10-08T15:03:07.735Z,66.66
2023-10-08T15:05:37.893Z,66.43
2023-10-08T15:08:10.745Z,66.35
2023-10-08T15:10:38.403Z,66.37
2023-10-08T15:13:05.509Z,66.46
2023-10-08T15:15:35.676Z,65.75
2023-10-08T15:18:03.449Z,66.62
2023-10-08T15:20:33.408Z,66.66
2023-10-08T15:23:01.965Z,66.37
2023-10-08T15:25:29.026Z,66.69
2023-10-08T15:27:56.193Z,66.49
2023-10-08T15:30:23.995Z,66.34
2023-10-08T15:32:51.455Z,66.72
2023-10-08T15:35:21.403Z,66.21
2023-10-08T15:37:49.027Z,66.59
2023-10-08T15:40:20.229Z,66.43
2023-10-08T15:42:56.347Z,66.92
2023-10-08T15:45:25.944Z,66.38
2023-10-08T15:47:54.444Z,66.40
2023-10-08T15:50:22.781Z,66.29
2023-10-08T15:52:50.996Z,66.60
2023-10-08T15:55:20.234Z,66.41
2023-10-08T15:57:47.428Z,66.05
2023-10-08T16:00:15.831Z,66.14
2023-10-08T16:02:45.428Z,65.60
2023-10-08T16:05:13.714Z,65.45
2023-10-08T16:07:40.913Z,65.49
2023-10-08T16:10:09.021Z,65.50
2023-10-08T16:12:37.409Z,65.15
2023-10-08T16:15:06.413Z,64.98
2023-10-08T16:17:33.782Z,64.99
2023-10-08T16:20:10.236Z,64.06
2023-10-08T16:22:37.476Z,64.22
2023-10-08T16:25:06.984Z,64.23
2023-10-08T16:27:35.410Z,63.83
2023-10-08T16:30:03.676Z,63.37
2023-10-08T16:32:30.821Z,63.81
2023-10-08T16:34:57.854Z,63.76
2023-10-08T16:37:25.046Z,63.17
2023-10-08T16:39:52.208Z,62.38
2023-10-08T16:42:19.524Z,62.38
2023-10-08T16:44:46.811Z,62.40
2023-10-08T16:47:18.128Z,61.22
2023-10-08T16:49:45.392Z,60.75
2023-10-08T16:52:12.517Z,61.31
2023-10-08T16:54:39.644Z,61.59
2023-10-08T16:57:06.724Z,60.90
2023-10-08T16:59:33.754Z,60.85
2023-10-08T17:02:00.797Z,60.60
2023-10-08T17:04:27.802Z,60.86
2023-10-08T17:06:55.170Z,60.88
2023-10-08T17:09:23.267Z,61.00
2023-10-08T17:11:50.612Z,61.15
2023-10-08T17:14:21.095Z,61.17
2023-10-08T17:16:48.010Z,60.49
2023-10-08T17:19:17.557Z,60.90
2023-10-08T17:21:45.560Z,60.83
2023-10-08T17:24:12.600Z,61.08
2023-10-08T17:26:39.766Z,60.78
2023-10-08T17:29:07.858Z,60.68
2023-10-08T17:31:40.871Z,60.23
2023-10-08T17:34:08.187Z,60.45
2023-10-08T17:36:37.300Z,60.48
2023-10-08T17:39:10.469Z,60.52
2023-10-08T17:41:38.066Z,60.76
2023-10-08T17:44:07.000Z,60.76
2023-10-08T17:46:34.894Z,60.93
2023-10-08T17:49:02.081Z,61.33
2023-10-08T17:51:29.352Z,61.35
2023-10-08T17:53:57.196Z,61.28
2023-10-08T17:56:24.290Z,61.16
2023-10-08T17:58:51.826Z,61.35
2023-10-08T18:01:19.121Z,61.39
2023-10-08T18:03:48.435Z,61.65
2023-10-08T18:06:16.896Z,61.33
2023-10-08T18:08:45.838Z,61.05
2023-10-08T18:11:13.048Z,61.07
2023-10-08T18:13:41.832Z,60.96
2023-10-08T18:16:13.889Z,61.02
2023-10-08T18:18:42.086Z,61.13
2023-10-08T18:21:19.481Z,60.68
2023-10-08T18:23:48.282Z,61.07
2023-10-08T18:26:19.140Z,61.04
2023-10-08T18:28:47.031Z,61.07
2023-10-08T18:31:16.459Z,60.95
2023-10-08T18:33:45.543Z,60.86
2023-10-08T18:36:14.123Z,60.91
2023-10-08T18:38:42.558Z,60.94
2023-10-08T18:41:11.967Z,61.12
2023-10-08T18:43:39.772Z,60.85
2023-10-08T18:46:11.446Z,61.20
2023-10-08T18:48:42.835Z,61.04
2023-10-08T18:51:14.186Z,60.63
2023-10-08T18:53:44.221Z,61.11
2023-10-08T18:56:15.389Z,61.06
2023-10-08T18:58:44.637Z,61.04
2023-10-08T19:01:15.599Z,61.22
2023-10-08T19:03:46.243Z,61.06
2023-10-08T19:06:13.874Z,60.63
2023-10-08T19:08:41.986Z,60.78
2023-10-08T19:11:09.689Z,60.96
2023-10-08T19:13:40.823Z,60.63
2023-10-08T19:16:11.725Z,61.02
2023-10-08T19:18:42.586Z,60.77
2023-10-08T19:21:19.618Z,60.90
2023-10-08T19:23:47.625Z,60.93
2023-10-08T19:26:18.013Z,60.91
2023-10-08T19:28:46.807Z,61.14
2023-10-08T19:31:15.715Z,60.95
2023-10-08T19:33:45.970Z,60.63
2023-10-08T19:36:14.995Z,60.70
2023-10-08T19:38:42.825Z,60.73
2023-10-08T19:41:28.655Z,60.72
2023-10-08T19:43:55.753Z,60.68
2023-10-08T19:46:28.575Z,60.86
2023-10-08T19:48:56.186Z,60.94
2023-10-08T19:51:24.117Z,61.03
2023-10-08T19:53:54.307Z,60.67
2023-10-08T19:56:22.561Z,60.68
2023-10-08T19:58:49.684Z,60.93
2023-10-08T20:01:18.117Z,60.94
2023-10-08T20:03:46.471Z,61.04
2023-10-08T20:06:14.646Z,60.70
2023-10-08T20:08:42.158Z,61.06
2023-10-08T20:11:09.393Z,60.96
2023-10-08T20:13:36.837Z,61.00
2023-10-08T20:16:08.107Z,60.99
2023-10-08T20:18:36.958Z,61.12
2023-10-08T20:21:06.295Z,61.12
2023-10-08T20:23:39.271Z,61.12
2023-10-08T20:26:14.975Z,61.04
2023-10-08T20:28:42.883Z,61.07
2023-10-08T20:31:16.980Z,60.92
2023-10-08T20:33:45.380Z,61.49
2023-10-08T20:36:15.049Z,61.22
2023-10-08T20:38:43.195Z,61.52
2023-10-08T20:41:23.439Z,61.21
2023-10-08T20:43:51.532Z,61.25
2023-10-08T20:46:20.394Z,61.23
2023-10-08T20:48:49.398Z,61.55
2023-10-08T20:51:18.809Z,61.16
2023-10-08T20:53:48.142Z,61.19
2023-10-08T20:56:17.068Z,61.05
2023-10-08T20:58:44.960Z,60.93
2023-10-08T21:01:12.389Z,61.04
2023-10-08T21:03:39.948Z,61.20
2023-10-08T21:06:07.608Z,61.05
2023-10-08T21:08:36.274Z,60.91
2023-10-08T21:11:04.293Z,60.91
2023-10-08T21:13:31.803Z,60.78
2023-10-08T21:16:02.089Z,61.19
2023-10-08T21:18:31.265Z,60.77
2023-10-08T21:20:58.842Z,61.04
2023-10-08T21:23:25.887Z,60.60
2023-10-08T21:25:53.160Z,60.72
2023-10-08T21:28:20.297Z,60.61
2023-10-08T21:30:47.376Z,60.87
2023-10-08T21:33:14.777Z,60.86
2023-10-08T21:35:44.318Z,60.23
2023-10-08T21:38:11.948Z,60.37
2023-10-08T21:40:39.895Z,60.88
2023-10-08T21:43:08.630Z,60.32
2023-10-08T21:45:36.334Z,60.68
2023-10-08T21:48:04.248Z,60.68
2023-10-08T21:50:31.865Z,60.82
2023-10-08T21:52:58.883Z,60.62
2023-10-08T21:55:26.310Z,60.64
2023-10-08T21:57:53.947Z,60.69
2023-10-08T22:00:24.547Z,60.58
2023-10-08T22:03:03.116Z,60.66
2023-10-08T22:05:31.999Z,60.62
2023-10-08T22:08:00.483Z,60.68
2023-10-08T22:10:29.094Z,60.71
2023-10-08T22:12:59.744Z,60.97
2023-10-08T22:15:28.096Z,60.93
2023-10-08T22:18:03.020Z,60.97
2023-10-08T22:20:40.069Z,61.08
2023-10-08T22:23:16.015Z,61.17
2023-10-08T22:25:50.003Z,61.09
2023-10-08T22:28:20.681Z,60.89
2023-10-08T22:30:52.855Z,61.03
2023-10-08T22:33:27.003Z,60.92
2023-10-08T22:35:58.656Z,61.27
2023-10-08T22:38:30.261Z,61.22
2023-10-08T22:41:00.492Z,60.90
2023-10-08T22:43:35.432Z,61.02
2023-10-08T22:46:09.996Z,61.05
2023-10-08T22:48:44.670Z,60.85
2023-10-08T22:51:24.097Z,61.25
2023-10-08T22:53:53.005Z,61.20
2023-10-08T22:56:20.537Z,61.06
2023-10-08T22:58:49.064Z,61.24
2023-10-08T23:01:20.643Z,61.03
2023-10-08T23:03:53.703Z,61.21
2023-10-08T23:06:25.105Z,61.29
2023-10-08T23:08:55.659Z,61.25
2023-10-08T23:11:22.913Z,61.40
2023-10-08T23:13:51.467Z,61.51
2023-10-08T23:16:22.495Z,61.56
2023-10-08T23:18:52.257Z,61.28
2023-10-08T23:21:21.781Z,61.26
2023-10-08T23:23:49.966Z,61.48
2023-10-08T23:26:17.960Z,61.52
2023-10-08T23:28:46.439Z,61.55
2023-10-08T23:31:14.250Z,61.46
2023-10-08T23:33:48.211Z,61.56
2023-10-08T23:36:17.710Z,61.56
2023-10-08T23:38:54.028Z,61.95
2023-10-08T23:41:33.523Z,61.76
2023-10-08T23:44:03.912Z,61.94
2023-10-08T23:46:32.465Z,62.12
2023-10-08T23:49:06.383Z,62.52
2023-10-08T23:51:42.964Z,62.34
2023-10-08T23:54:25.112Z,62.52
2023-10-08T23:56:58.720Z,62.84
2023-10-08T23:59:41.027Z,63.02
